createdAt,value
2019-04-29T00:00:46.706Z,6.50
2019-04-29T00:03:16.007Z,7.27
2019-04-29T00:05:45.373Z,6.13
2019-04-29T00:08:14.620Z,6.83
2019-04-29T00:10:43.922Z,6.73
2019-04-29T00:13:14.042Z,6.97
2019-04-29T00:15:56.327Z,6.70
2019-04-29T00:18:35.553Z,7.07
2019-04-29T00:21:04.822Z,6.50
2019-04-29T00:23:34.063Z,8.00
2019-04-29T00:26:05.134Z,8.70
2019-04-29T00:28:34.857Z,9.70
2019-04-29T00:31:04.218Z,8.40
2019-04-29T00:33:33.852Z,8.30
2019-04-29T00:36:03.106Z,10.30
2019-04-29T00:38:54.667Z,8.33
2019-04-29T00:41:46.314Z,7.63
2019-04-29T00:44:17.628Z,8.23
2019-04-29T00:46:47.261Z,7.40
2019-04-29T00:49:16.860Z,8.10
2019-04-29T00:51:48.217Z,8.40
2019-04-29T00:54:38.232Z,8.53
2019-04-29T00:57:07.815Z,10.73
2019-04-29T00:59:38.478Z,9.90
2019-04-29T01:02:08.524Z,9.95
2019-04-29T01:04:38.176Z,10.07
2019-04-29T01:07:08.642Z,10.03
2019-04-29T01:09:37.876Z,9.13
2019-04-29T01:12:07.651Z,10.30
2019-04-29T01:14:37.011Z,10.40
2019-04-29T01:17:06.279Z,9.53
2019-04-29T01:19:35.900Z,9.60
2019-04-29T01:22:05.360Z,10.00
2019-04-29T01:24:34.624Z,10.13
2019-04-29T01:27:17.778Z,11.33
2019-04-29T01:29:47.228Z,11.60
2019-04-29T01:32:16.515Z,12.10
2019-04-29T01:34:54.342Z,10.20
2019-04-29T01:37:41.240Z,11.07
2019-04-29T01:40:29.623Z,11.63
2019-04-29T01:42:58.899Z,13.57
2019-04-29T01:45:28.541Z,14.40
2019-04-29T01:47:58.576Z,12.90
2019-04-29T01:50:27.823Z,12.20
2019-04-29T01:52:57.471Z,11.47
2019-04-29T01:55:27.047Z,15.20
2019-04-29T01:57:56.688Z,14.97
2019-04-29T02:00:25.951Z,14.60
2019-04-29T02:02:55.679Z,14.93
2019-04-29T02:05:24.955Z,14.53
2019-04-29T02:07:54.204Z,12.40
2019-04-29T02:10:33.211Z,12.10
2019-04-29T02:13:03.256Z,13.00
2019-04-29T02:15:32.523Z,13.17
2019-04-29T02:18:01.934Z,13.13
2019-04-29T02:20:31.200Z,14.00
2019-04-29T02:23:26.659Z,12.73
2019-04-29T02:25:56.304Z,11.60
2019-04-29T02:28:25.653Z,14.90
2019-04-29T02:30:54.939Z,15.30
2019-04-29T02:33:24.608Z,13.83
2019-04-29T02:35:54.163Z,14.83
2019-04-29T02:38:42.356Z,13.33
2019-04-29T02:41:33.333Z,16.45
2019-04-29T02:44:04.641Z,15.00
2019-04-29T02:46:35.380Z,16.15
2019-04-29T02:49:04.678Z,16.13
2019-04-29T02:51:49.150Z,15.30
2019-04-29T02:54:19.936Z,17.37
2019-04-29T02:56:56.093Z,17.67
2019-04-29T02:59:31.500Z,15.13
2019-04-29T03:02:25.751Z,15.33
2019-04-29T03:05:13.709Z,18.63
2019-04-29T03:07:43.006Z,16.37
2019-04-29T03:10:12.731Z,19.43
2019-04-29T03:12:42.324Z,19.50
2019-04-29T03:15:13.047Z,22.77
2019-04-29T03:17:43.946Z,22.97
2019-04-29T03:20:22.060Z,21.80
2019-04-29T03:23:07.638Z,22.07
2019-04-29T03:25:37.344Z,19.50
2019-04-29T03:28:07.057Z,19.90
2019-04-29T03:30:36.606Z,18.87
2019-04-29T03:33:06.074Z,19.30
2019-04-29T03:35:38.245Z,17.47
2019-04-29T03:38:10.238Z,20.90
2019-04-29T03:40:41.134Z,22.87
2019-04-29T03:43:11.984Z,20.67
2019-04-29T03:45:42.315Z,21.23
2019-04-29T03:48:11.705Z,19.60
2019-04-29T03:50:41.330Z,19.60
2019-04-29T03:53:10.644Z,18.37
2019-04-29T03:55:41.634Z,19.07
2019-04-29T03:58:10.974Z,20.10
2019-04-29T04:00:44.277Z,19.37
2019-04-29T04:03:28.902Z,18.70
2019-04-29T04:06:05.646Z,18.70
2019-04-29T04:08:42.746Z,18.70
2019-04-29T04:11:12.107Z,18.23
2019-04-29T04:13:41.492Z,21.03
2019-04-29T04:16:22.177Z,17.10
2019-04-29T04:19:12.082Z,16.60
2019-04-29T04:21:42.988Z,17.30
2019-04-29T04:24:12.624Z,18.93
2019-04-29T04:26:43.595Z,17.95
2019-04-29T04:29:12.868Z,17.10
2019-04-29T04:31:44.310Z,19.97
2019-04-29T04:34:14.575Z,19.77
2019-04-29T04:36:45.831Z,17.47
2019-04-29T04:39:15.494Z,18.40
2019-04-29T04:41:44.960Z,18.00
2019-04-29T04:44:14.642Z,17.20
2019-04-29T04:46:47.825Z,18.37
2019-04-29T04:49:19.276Z,17.50
2019-04-29T04:51:50.836Z,18.10
2019-04-29T04:54:20.144Z,16.40
2019-04-29T04:56:50.704Z,17.40
2019-04-29T04:59:21.839Z,17.13
2019-04-29T05:01:51.475Z,17.20
2019-04-29T05:04:21.156Z,17.80
2019-04-29T05:06:50.778Z,17.03
2019-04-29T05:09:21.843Z,18.10
2019-04-29T05:11:51.617Z,14.73
2019-04-29T05:14:23.009Z,14.20
2019-04-29T05:16:52.530Z,15.47
2019-04-29T05:19:22.145Z,15.60
2019-04-29T05:21:51.755Z,13.73
2019-04-29T05:24:22.029Z,13.80
2019-04-29T05:26:51.336Z,14.37
2019-04-29T05:29:20.635Z,14.63
2019-04-29T05:31:51.686Z,23.20
2019-04-29T05:34:22.712Z,15.07
2019-04-29T05:37:18.584Z,15.83
2019-04-29T05:39:47.987Z,14.70
2019-04-29T05:42:17.582Z,14.60
2019-04-29T05:45:10.132Z,13.90
2019-04-29T05:47:44.436Z,14.43
2019-04-29T05:50:32.454Z,13.43
2019-04-29T05:53:31.768Z,11.87
2019-04-29T05:56:02.086Z,12.83
2019-04-29T05:58:37.821Z,12.67
2019-04-29T06:01:09.649Z,12.73
2019-04-29T06:03:44.375Z,11.50
2019-04-29T06:06:15.821Z,11.20
2019-04-29T06:08:49.017Z,11.53
2019-04-29T06:11:19.544Z,11.00
2019-04-29T06:13:51.950Z,9.97
2019-04-29T06:16:22.849Z,7.77
2019-04-29T06:18:59.694Z,8.97
2019-04-29T06:21:24.689Z,9.03
2019-04-29T06:23:59.496Z,9.13
2019-04-29T06:26:27.165Z,10.77
2019-04-29T06:28:56.741Z,10.23
2019-04-29T06:31:27.377Z,12.03
2019-04-29T06:34:00.584Z,11.50
2019-04-29T06:36:32.415Z,11.30
2019-04-29T06:39:02.032Z,13.50
2019-04-29T06:41:31.294Z,11.47
2019-04-29T06:44:06.662Z,14.57
2019-04-29T06:46:33.148Z,12.20
2019-04-29T06:49:09.925Z,13.10
2019-04-29T06:51:33.501Z,14.37
2019-04-29T06:54:04.762Z,11.70
2019-04-29T06:56:34.494Z,9.87
2019-04-29T06:59:07.522Z,6.80
2019-04-29T07:01:37.448Z,4.97
2019-04-29T07:04:06.185Z,5.80
2019-04-29T07:06:35.465Z,5.53
2019-04-29T07:09:06.730Z,6.30
2019-04-29T07:11:36.969Z,4.93
2019-04-29T07:14:10.703Z,4.07
2019-04-29T07:16:40.079Z,4.70
2019-04-29T07:19:10.330Z,4.03
2019-04-29T07:21:41.961Z,4.43
2019-04-29T07:24:11.436Z,3.73
2019-04-29T07:26:42.526Z,3.17
2019-04-29T07:29:13.130Z,4.20
2019-04-29T07:31:42.649Z,3.53
2019-04-29T07:34:12.961Z,4.87
2019-04-29T07:36:43.787Z,3.93
2019-04-29T07:39:14.063Z,4.30
2019-04-29T07:41:43.362Z,4.07
2019-04-29T07:44:18.261Z,4.37
2019-04-29T07:46:56.625Z,4.40
2019-04-29T07:49:23.539Z,4.83
2019-04-29T07:51:54.015Z,5.00
2019-04-29T07:54:23.354Z,5.40
2019-04-29T07:56:52.653Z,6.60
2019-04-29T07:59:22.287Z,7.10
2019-04-29T08:01:55.795Z,8.13
2019-04-29T08:04:26.367Z,8.73
2019-04-29T08:06:57.074Z,8.25
2019-04-29T08:09:27.562Z,12.13
2019-04-29T08:11:57.164Z,8.77
2019-04-29T08:14:27.411Z,7.50
2019-04-29T08:16:56.650Z,8.33
2019-04-29T08:19:29.487Z,7.97
2019-04-29T08:21:57.178Z,7.70
2019-04-29T08:24:26.799Z,5.70
2019-04-29T08:26:57.733Z,4.93
2019-04-29T08:29:30.857Z,6.60
2019-04-29T08:32:02.293Z,5.17
2019-04-29T08:34:31.595Z,4.67
2019-04-29T08:37:01.275Z,5.40
2019-04-29T08:39:32.255Z,4.60
2019-04-29T08:42:08.731Z,5.00
2019-04-29T08:44:54.636Z,5.07
2019-04-29T08:47:31.483Z,4.57
2019-04-29T08:49:59.432Z,5.37
2019-04-29T08:52:29.119Z,4.30
2019-04-29T08:54:58.697Z,5.00
2019-04-29T08:57:31.804Z,4.77
2019-04-29T09:00:00.566Z,4.57
2019-04-29T09:02:34.987Z,2.70
2019-04-29T09:05:02.503Z,3.10
2019-04-29T09:07:32.611Z,4.90
2019-04-29T09:10:03.646Z,4.00
2019-04-29T09:12:32.881Z,2.37
2019-04-29T09:15:02.434Z,3.43
2019-04-29T09:17:33.263Z,4.83
2019-04-29T09:20:02.901Z,3.00
2019-04-29T09:22:35.499Z,5.20
2019-04-29T09:25:32.586Z,5.33
2019-04-29T09:28:06.323Z,5.50
2019-04-29T09:30:38.662Z,3.93
2019-04-29T09:33:08.698Z,5.83
2019-04-29T09:35:38.854Z,4.97
2019-04-29T09:38:09.225Z,5.70
2019-04-29T09:40:45.655Z,5.57
2019-04-29T09:43:26.206Z,5.23
2019-04-29T09:46:01.159Z,4.70
2019-04-29T09:48:30.431Z,2.90
2019-04-29T09:51:01.594Z,4.43
2019-04-29T09:53:32.470Z,4.30
2019-04-29T09:56:01.819Z,4.40
2019-04-29T09:58:31.360Z,3.50
2019-04-29T10:01:27.253Z,4.07
2019-04-29T10:04:16.785Z,3.73
2019-04-29T10:06:47.701Z,3.40
2019-04-29T10:09:16.954Z,4.13
2019-04-29T10:11:46.237Z,3.63
2019-04-29T10:14:15.501Z,3.80
2019-04-29T10:17:06.707Z,4.27
2019-04-29T10:19:44.174Z,3.07
2019-04-29T10:22:13.438Z,3.80
2019-04-29T10:24:44.183Z,3.63
2019-04-29T10:27:15.054Z,4.17
2019-04-29T10:29:46.526Z,2.97
2019-04-29T10:32:15.882Z,2.70
2019-04-29T10:34:47.001Z,3.40
2019-04-29T10:37:16.359Z,3.07
2019-04-29T10:40:10.614Z,4.10
2019-04-29T10:42:36.494Z,3.50
2019-04-29T10:45:21.714Z,3.53
2019-04-29T10:48:01.176Z,3.00
2019-04-29T10:50:52.230Z,2.60
2019-04-29T10:53:23.558Z,5.03
2019-04-29T10:55:53.585Z,3.60
2019-04-29T10:58:30.198Z,4.50
2019-04-29T11:01:37.547Z,4.90
2019-04-29T11:04:08.834Z,3.67
2019-04-29T11:06:38.640Z,3.40
2019-04-29T11:09:27.501Z,3.87
2019-04-29T11:11:57.147Z,4.20
2019-04-29T11:14:26.868Z,3.40
2019-04-29T11:16:56.614Z,4.30
2019-04-29T11:19:26.242Z,4.13
2019-04-29T11:21:55.902Z,3.90
2019-04-29T11:24:46.395Z,4.50
2019-04-29T11:27:20.465Z,4.75
2019-04-29T11:29:52.197Z,4.40
2019-04-29T11:32:30.338Z,4.53
2019-04-29T11:35:28.479Z,5.00
2019-04-29T11:37:59.963Z,5.00
2019-04-29T11:40:43.185Z,2.80
2019-04-29T11:43:02.526Z,5.07
2019-04-29T11:45:33.741Z,5.20
2019-04-29T11:48:06.863Z,5.73
2019-04-29T11:50:49.394Z,3.90
2019-04-29T11:53:16.147Z,6.00
2019-04-29T11:55:46.425Z,5.27
2019-04-29T11:58:26.701Z,5.63
2019-04-29T12:01:10.343Z,5.40
2019-04-29T12:03:40.721Z,4.80
2019-04-29T12:06:16.367Z,5.07
2019-04-29T12:08:48.168Z,5.57
2019-04-29T12:11:15.857Z,6.00
2019-04-29T12:14:10.219Z,5.80
2019-04-29T12:16:46.966Z,5.60
2019-04-29T12:19:24.576Z,5.60
2019-04-29T12:21:53.847Z,6.03
2019-04-29T12:24:23.086Z,5.80
2019-04-29T12:26:52.714Z,5.33
2019-04-29T12:29:22.040Z,5.30
2019-04-29T12:32:12.309Z,6.83
2019-04-29T12:34:56.026Z,5.63
2019-04-29T12:37:48.578Z,5.30
2019-04-29T12:40:41.014Z,5.80
2019-04-29T12:43:27.962Z,6.13
2019-04-29T12:46:25.239Z,6.07
2019-04-29T12:48:54.634Z,6.90
2019-04-29T12:51:24.230Z,6.70
2019-04-29T12:53:53.772Z,6.93
2019-04-29T12:56:35.471Z,6.10
2019-04-29T12:59:06.157Z,6.53
2019-04-29T13:01:51.275Z,7.80
2019-04-29T13:04:33.621Z,7.70
2019-04-29T13:07:22.120Z,7.60
2019-04-29T13:09:52.875Z,6.40
2019-04-29T13:12:25.041Z,8.00
2019-04-29T13:15:14.158Z,8.23
2019-04-29T13:18:08.570Z,8.20
2019-04-29T13:20:36.426Z,8.77
2019-04-29T13:23:17.714Z,8.10
2019-04-29T13:25:38.881Z,9.60
2019-04-29T13:28:08.216Z,9.90
2019-04-29T13:30:37.474Z,8.80
2019-04-29T13:33:15.946Z,9.13
2019-04-29T13:35:47.964Z,8.67
2019-04-29T13:38:09.824Z,8.20
2019-04-29T13:40:39.521Z,8.67
2019-04-29T13:43:10.314Z,6.80
2019-04-29T13:45:47.004Z,8.00
2019-04-29T13:48:55.230Z,9.87
2019-04-29T13:51:34.817Z,9.00
2019-04-29T13:53:55.410Z,9.40
2019-04-29T13:56:35.163Z,8.87
2019-04-29T13:58:57.965Z,9.47
2019-04-29T14:02:00.095Z,9.30
2019-04-29T14:04:27.110Z,9.10
2019-04-29T14:06:57.667Z,10.60
2019-04-29T14:09:28.588Z,10.87
2019-04-29T14:12:02.108Z,10.33
2019-04-29T14:14:30.225Z,11.17
2019-04-29T14:17:17.051Z,11.27
2019-04-29T14:19:40.934Z,10.20
2019-04-29T14:22:02.611Z,11.23
2019-04-29T14:24:33.531Z,11.83
2019-04-29T14:27:02.810Z,11.30
2019-04-29T14:29:36.136Z,12.70
2019-04-29T14:32:05.604Z,12.50
2019-04-29T14:34:43.620Z,11.80
2019-04-29T14:37:21.162Z,11.53
2019-04-29T14:39:45.297Z,10.57
2019-04-29T14:42:30.156Z,12.90
2019-04-29T14:45:26.897Z,13.00
2019-04-29T14:48:23.561Z,12.10
2019-04-29T14:50:54.411Z,13.50
2019-04-29T14:53:26.276Z,11.40
2019-04-29T14:55:56.863Z,12.83
2019-04-29T14:58:26.266Z,12.90
2019-04-29T15:01:23.438Z,13.60
2019-04-29T15:03:55.269Z,11.27
2019-04-29T15:06:28.948Z,14.30
2019-04-29T15:08:59.264Z,13.70
2019-04-29T15:11:34.266Z,15.70
2019-04-29T15:14:25.350Z,16.20
2019-04-29T15:17:05.621Z,15.57
2019-04-29T15:20:00.062Z,12.63
2019-04-29T15:22:32.872Z,15.60
2019-04-29T15:25:02.212Z,15.70
2019-04-29T15:27:33.570Z,14.60
2019-04-29T15:30:03.863Z,13.57
2019-04-29T15:32:33.142Z,10.90
2019-04-29T15:35:04.620Z,11.57
2019-04-29T15:37:33.906Z,10.97
2019-04-29T15:40:04.669Z,14.43
2019-04-29T15:42:37.970Z,12.00
2019-04-29T15:45:07.050Z,11.37
2019-04-29T15:47:41.702Z,14.03
2019-04-29T15:50:19.164Z,11.00
2019-04-29T15:52:49.154Z,11.23
2019-04-29T15:55:18.491Z,10.47
2019-04-29T16:00:22.949Z,7.37
2019-04-29T16:02:52.297Z,7.63
2019-04-29T16:08:40.680Z,7.70
2019-04-29T16:11:33.351Z,7.03
2019-04-29T16:14:09.247Z,7.10
2019-04-29T16:16:35.570Z,5.67
2019-04-29T16:19:10.286Z,6.20
2019-04-29T16:21:41.578Z,7.40
2019-04-29T16:24:26.014Z,7.63
2019-04-29T16:26:40.967Z,6.50
2019-04-29T16:29:15.150Z,7.90
2019-04-29T16:31:43.224Z,7.47
2019-04-29T16:34:14.489Z,6.77
2019-04-29T16:36:49.813Z,5.50
2019-04-29T16:39:15.695Z,5.03
2019-04-29T16:42:02.751Z,9.40
2019-04-29T16:44:35.947Z,9.60
2019-04-29T16:47:07.351Z,7.60
2019-04-29T16:49:38.228Z,6.30
2019-04-29T16:52:07.481Z,9.07
2019-04-29T16:54:36.757Z,11.90
2019-04-29T16:57:07.924Z,9.07
2019-04-29T16:59:38.910Z,9.50
2019-04-29T17:02:08.571Z,10.70
2019-04-29T17:04:38.382Z,9.40
2019-04-29T17:07:13.362Z,11.77
2019-04-29T17:10:05.658Z,11.10
2019-04-29T17:12:59.903Z,10.07
2019-04-29T17:15:29.748Z,12.03
2019-04-29T17:17:59.384Z,10.17
2019-04-29T17:20:29.098Z,11.87
2019-04-29T17:22:58.366Z,13.67
2019-04-29T17:25:27.637Z,13.38
2019-04-29T17:28:36.475Z,12.73
2019-04-29T17:31:37.935Z,11.68
2019-04-29T17:34:29.397Z,12.23
2019-04-29T17:35:14.929Z,8.40
2019-04-29T17:35:17.350Z,6.15
2019-04-29T17:36:48.407Z,13.60
2019-04-29T17:39:20.198Z,12.87
2019-04-29T17:41:49.481Z,14.83
2019-04-29T17:44:51.981Z,14.80
2019-04-29T17:47:49.704Z,16.50
2019-04-29T17:50:33.566Z,12.97
2019-04-29T17:53:03.721Z,13.77
2019-04-29T17:55:55.464Z,12.13
2019-04-29T17:58:35.857Z,13.57
2019-04-29T18:01:27.727Z,15.50
2019-04-29T18:04:16.695Z,17.40
2019-04-29T18:06:58.933Z,14.28
2019-04-29T18:09:30.365Z,15.40
2019-04-29T18:12:05.058Z,21.90
2019-04-29T18:14:39.084Z,20.20
2019-04-29T18:17:07.678Z,18.40
2019-04-29T18:19:55.407Z,20.80
2019-04-29T18:22:47.795Z,19.47
2019-04-29T18:25:30.684Z,17.00
2019-04-29T18:28:00.053Z,18.00
2019-04-29T18:30:35.736Z,20.43
2019-04-29T18:33:05.258Z,21.50
2019-04-29T18:35:35.810Z,20.87
2019-04-29T18:38:07.487Z,21.20
2019-04-29T18:40:41.945Z,21.00
2019-04-29T18:43:09.107Z,20.50
2019-04-29T18:45:39.143Z,18.37
2019-04-29T18:48:16.691Z,20.70
2019-04-29T18:50:41.450Z,21.50
2019-04-29T18:53:12.575Z,21.03
2019-04-29T18:55:45.073Z,18.63
2019-04-29T18:58:16.018Z,17.97
2019-04-29T19:00:52.331Z,20.97
2019-04-29T19:03:21.109Z,21.40
2019-04-29T19:05:55.146Z,20.70
2019-04-29T19:08:28.607Z,22.37
2019-04-29T19:10:56.776Z,19.27
2019-04-29T19:13:30.631Z,19.03
2019-04-29T19:16:09.561Z,19.27
2019-04-29T19:18:29.889Z,18.53
2019-04-29T19:20:59.294Z,21.07
2019-04-29T19:23:29.700Z,19.60
2019-04-29T19:25:59.346Z,19.63
2019-04-29T19:28:30.935Z,17.27
2019-04-29T19:31:03.166Z,18.10
2019-04-29T19:33:35.060Z,16.07
2019-04-29T19:36:01.751Z,18.00
2019-04-29T19:38:30.992Z,17.13
2019-04-29T19:41:00.361Z,19.00
2019-04-29T19:43:30.337Z,17.63
2019-04-29T19:45:59.699Z,19.10
2019-04-29T19:48:28.986Z,17.57
2019-04-29T19:51:14.453Z,18.80
2019-04-29T19:53:37.718Z,17.40
2019-04-29T19:56:06.659Z,18.33
2019-04-29T19:58:35.746Z,18.23
2019-04-29T20:01:13.826Z,20.13
2019-04-29T20:03:49.742Z,18.87
2019-04-29T20:06:24.831Z,18.10
2019-04-29T20:08:57.022Z,17.30
2019-04-29T20:11:29.065Z,17.47
2019-04-29T20:14:01.953Z,17.77
2019-04-29T20:16:59.648Z,18.30
2019-04-29T20:19:55.475Z,16.70
2019-04-29T20:22:20.581Z,16.40
2019-04-29T20:24:50.915Z,16.70
2019-04-29T20:27:26.211Z,16.03
2019-04-29T20:29:55.884Z,15.73
2019-04-29T20:32:31.688Z,16.17
2019-04-29T20:35:07.129Z,15.00
2019-04-29T20:37:31.937Z,16.10
2019-04-29T20:40:01.796Z,16.67
2019-04-29T20:42:32.686Z,15.00
2019-04-29T20:45:02.541Z,16.67
2019-04-29T20:47:37.874Z,15.60
2019-04-29T20:50:03.077Z,15.47
2019-04-29T20:52:52.202Z,15.37
2019-04-29T20:55:20.435Z,15.80
2019-04-29T20:57:52.490Z,16.13
2019-04-29T21:00:24.772Z,16.00
2019-04-29T21:02:53.474Z,15.93
2019-04-29T21:05:24.824Z,14.27
2019-04-29T21:08:03.009Z,17.00
2019-04-29T21:10:27.722Z,15.43
2019-04-29T21:13:20.296Z,15.80
2019-04-29T21:15:59.627Z,15.50
2019-04-29T21:18:29.401Z,15.63
2019-04-29T21:20:59.694Z,16.13
2019-04-29T21:23:35.242Z,16.33
2019-04-29T21:26:07.155Z,10.83
2019-04-29T21:28:38.122Z,16.07
2019-04-29T21:31:05.951Z,15.67
2019-04-29T21:33:35.616Z,16.03
2019-04-29T21:36:30.754Z,16.33
2019-04-29T21:39:26.586Z,15.57
2019-04-29T21:42:05.709Z,16.27
2019-04-29T21:44:35.183Z,17.37
2019-04-29T21:47:08.041Z,15.27
2019-04-29T21:49:44.905Z,16.90
2019-04-29T21:52:10.805Z,16.97
2019-04-29T21:54:44.486Z,15.53
2019-04-29T21:57:18.508Z,15.43
2019-04-29T21:59:46.154Z,18.63
2019-04-29T22:02:17.545Z,17.10
2019-04-29T22:04:48.943Z,15.43
2019-04-29T22:07:19.201Z,16.93
2019-04-29T22:09:50.306Z,17.83
2019-04-29T22:12:20.431Z,17.57
2019-04-29T22:14:56.392Z,19.70
2019-04-29T22:17:26.356Z,12.23
2019-04-29T22:19:57.407Z,17.00
2019-04-29T22:22:30.620Z,18.07
2019-04-29T22:25:05.803Z,14.27
2019-04-29T22:27:34.230Z,14.03
2019-04-29T22:30:05.821Z,18.80
2019-04-29T22:32:35.676Z,17.57
2019-04-29T22:35:06.606Z,18.97
2019-04-29T22:37:38.203Z,18.83
2019-04-29T22:40:08.010Z,18.83
2019-04-29T22:42:48.710Z,18.70
2019-04-29T22:45:19.665Z,20.03
2019-04-29T22:47:49.402Z,19.43
2019-04-29T22:50:19.028Z,15.88
2019-04-29T22:52:49.434Z,21.10
2019-04-29T22:55:18.718Z,19.37
2019-04-29T22:57:47.954Z,23.77
2019-04-29T23:00:19.660Z,21.77
2019-04-29T23:02:48.912Z,19.80
2019-04-29T23:05:23.607Z,24.37
2019-04-29T23:07:52.865Z,20.30
2019-04-29T23:10:26.246Z,20.07
2019-04-29T23:12:57.238Z,22.47
2019-04-29T23:15:26.007Z,27.73
2019-04-29T23:17:57.312Z,22.43
2019-04-29T23:20:45.633Z,23.67
2019-04-29T23:23:20.155Z,24.33
2019-04-29T23:25:55.660Z,25.70
2019-04-29T23:28:28.384Z,27.80
2019-04-29T23:30:58.312Z,25.50
2019-04-29T23:33:27.653Z,28.17
2019-04-29T23:35:57.905Z,23.57
2019-04-29T23:38:27.213Z,27.57
2019-04-29T23:40:57.791Z,27.10
2019-04-29T23:43:28.539Z,28.47
2019-04-29T23:46:00.519Z,30.07
2019-04-29T23:48:38.689Z,29.53
2019-04-29T23:51:00.882Z,28.63
2019-04-29T23:53:31.959Z,23.20
2019-04-29T23:56:05.577Z,27.00
2019-04-29T23:58:52.676Z,26.03
